sensor_id;sensor_type;location;lat;lon;timestamp;P1;durP1;ratioP1;P2;durP2;ratioP2
29206;SDS011;16247;50.840;4.382;2022-10-16T00:03:59;1.38;;;0.88;;
29206;SDS011;16247;50.840;4.382;2022-10-16T00:06:59;6.22;;;1.92;;
29206;SDS011;16247;50.840;4.382;2022-10-16T00:12:39;1.23;;;0.80;;
29206;SDS011;16247;50.840;4.382;2022-10-16T00:15:49;1.50;;;0.93;;
29206;SDS011;16247;50.840;4.382;2022-10-16T00:18:32;2.83;;;1.00;;
29206;SDS011;16247;50.840;4.382;2022-10-16T00:30:44;2.42;;;1.00;;
29206;SDS011;16247;50.840;4.382;2022-10-16T00:39:03;2.97;;;1.10;;
29206;SDS011;16247;50.840;4.382;2022-10-16T00:41:31;3.33;;;1.27;;
29206;SDS011;16247;50.840;4.382;2022-10-16T00:46:42;4.43;;;1.10;;
29206;SDS011;16247;50.840;4.382;2022-10-16T00:49:19;1.67;;;1.00;;
29206;SDS011;16247;50.840;4.382;2022-10-16T00:51:49;1.65;;;1.02;;
29206;SDS011;16247;50.840;4.382;2022-10-16T00:54:18;2.83;;;1.00;;
29206;SDS011;16247;50.840;4.382;2022-10-16T00:56:48;2.75;;;1.15;;
29206;SDS011;16247;50.840;4.382;2022-10-16T00:59:19;3.53;;;0.87;;
29206;SDS011;16247;50.840;4.382;2022-10-16T01:01:53;3.45;;;1.00;;
29206;SDS011;16247;50.840;4.382;2022-10-16T01:04:22;2.83;;;1.38;;
29206;SDS011;16247;50.840;4.382;2022-10-16T01:28:32;7.10;;;1.38;;
29206;SDS011;16247;50.840;4.382;2022-10-16T01:35:31;2.85;;;1.00;;
29206;SDS011;16247;50.840;4.382;2022-10-16T01:40:45;2.13;;;0.95;;
29206;SDS011;16247;50.840;4.382;2022-10-16T01:43:22;2.85;;;1.10;;
29206;SDS011;16247;50.840;4.382;2022-10-16T01:46:11;1.80;;;1.33;;
29206;SDS011;16247;50.840;4.382;2022-10-16T01:48:44;2.33;;;1.20;;
29206;SDS011;16247;50.840;4.382;2022-10-16T01:51:31;2.10;;;1.02;;
29206;SDS011;16247;50.840;4.382;2022-10-16T01:54:02;2.83;;;1.25;;
29206;SDS011;16247;50.840;4.382;2022-10-16T01:56:38;1.85;;;1.17;;
29206;SDS011;16247;50.840;4.382;2022-10-16T01:59:16;3.20;;;1.85;;
29206;SDS011;16247;50.840;4.382;2022-10-16T02:04:39;3.38;;;1.33;;
29206;SDS011;16247;50.840;4.382;2022-10-16T02:07:09;2.28;;;1.20;;
29206;SDS011;16247;50.840;4.382;2022-10-16T02:09:37;4.78;;;1.45;;
29206;SDS011;16247;50.840;4.382;2022-10-16T02:12:16;2.95;;;1.17;;
29206;SDS011;16247;50.840;4.382;2022-10-16T02:14:48;3.45;;;1.15;;
29206;SDS011;16247;50.840;4.382;2022-10-16T02:17:15;2.20;;;1.05;;
29206;SDS011;16247;50.840;4.382;2022-10-16T02:19:48;4.35;;;1.77;;
29206;SDS011;16247;50.840;4.382;2022-10-16T02:22:28;2.65;;;1.20;;
29206;SDS011;16247;50.840;4.382;2022-10-16T02:25:07;3.30;;;1.42;;
29206;SDS011;16247;50.840;4.382;2022-10-16T02:31:23;3.72;;;1.20;;
29206;SDS011;16247;50.840;4.382;2022-10-16T02:37:34;3.50;;;1.50;;
29206;SDS011;16247;50.840;4.382;2022-10-16T02:43:19;2.05;;;1.25;;
29206;SDS011;16247;50.840;4.382;2022-10-16T02:45:45;3.28;;;1.48;;
29206;SDS011;16247;50.840;4.382;2022-10-16T02:48:11;5.30;;;2.08;;
29206;SDS011;16247;50.840;4.382;2022-10-16T02:50:37;3.70;;;1.60;;
29206;SDS011;16247;50.840;4.382;2022-10-16T02:53:03;7.30;;;1.63;;
29206;SDS011;16247;50.840;4.382;2022-10-16T02:55:29;5.50;;;1.60;;
29206;SDS011;16247;50.840;4.382;2022-10-16T02:57:56;3.17;;;1.60;;
29206;SDS011;16247;50.840;4.382;2022-10-16T03:00:25;5.35;;;1.40;;
29206;SDS011;16247;50.840;4.382;2022-10-16T03:12:30;2.95;;;1.75;;
29206;SDS011;16247;50.840;4.382;2022-10-16T03:18:24;3.33;;;1.70;;
29206;SDS011;16247;50.840;4.382;2022-10-16T03:21:47;3.83;;;1.70;;
29206;SDS011;16247;50.840;4.382;2022-10-16T03:28:06;3.45;;;2.15;;
29206;SDS011;16247;50.840;4.382;2022-10-16T03:34:00;4.97;;;1.70;;
29206;SDS011;16247;50.840;4.382;2022-10-16T03:43:46;1.40;;;1.13;;
29206;SDS011;16247;50.840;4.382;2022-10-16T03:46:41;1.98;;;1.23;;
29206;SDS011;16247;50.840;4.382;2022-10-16T03:49:10;4.35;;;1.48;;
29206;SDS011;16247;50.840;4.382;2022-10-16T03:55:32;5.50;;;1.52;;
29206;SDS011;16247;50.840;4.382;2022-10-16T03:57:58;3.63;;;1.55;;
29206;SDS011;16247;50.840;4.382;2022-10-16T04:01:12;6.28;;;1.42;;
29206;SDS011;16247;50.840;4.382;2022-10-16T04:03:42;1.65;;;1.40;;
29206;SDS011;16247;50.840;4.382;2022-10-16T04:06:15;3.33;;;1.65;;
29206;SDS011;16247;50.840;4.382;2022-10-16T04:08:44;3.45;;;1.50;;
29206;SDS011;16247;50.840;4.382;2022-10-16T04:14:15;4.50;;;1.70;;
29206;SDS011;16247;50.840;4.382;2022-10-16T04:20:06;5.90;;;1.45;;
29206;SDS011;16247;50.840;4.382;2022-10-16T04:29:18;1.58;;;1.27;;
29206;SDS011;16247;50.840;4.382;2022-10-16T04:32:01;3.08;;;1.35;;
29206;SDS011;16247;50.840;4.382;2022-10-16T04:36:59;3.35;;;1.60;;
29206;SDS011;16247;50.840;4.382;2022-10-16T04:39:25;5.97;;;2.05;;
29206;SDS011;16247;50.840;4.382;2022-10-16T04:41:54;4.40;;;1.83;;
29206;SDS011;16247;50.840;4.382;2022-10-16T04:48:01;2.75;;;1.40;;
29206;SDS011;16247;50.840;4.382;2022-10-16T04:53:42;5.32;;;1.70;;
29206;SDS011;16247;50.840;4.382;2022-10-16T04:56:08;4.35;;;1.30;;
29206;SDS011;16247;50.840;4.382;2022-10-16T04:58:56;5.10;;;1.67;;
29206;SDS011;16247;50.840;4.382;2022-10-16T05:01:22;3.38;;;1.90;;
29206;SDS011;16247;50.840;4.382;2022-10-16T05:03:51;3.22;;;1.65;;
29206;SDS011;16247;50.840;4.382;2022-10-16T05:06:17;6.60;;;1.88;;
29206;SDS011;16247;50.840;4.382;2022-10-16T05:08:43;4.13;;;1.90;;
29206;SDS011;16247;50.840;4.382;2022-10-16T05:16:59;3.08;;;1.70;;
29206;SDS011;16247;50.840;4.382;2022-10-16T05:23:50;6.90;;;1.98;;
29206;SDS011;16247;50.840;4.382;2022-10-16T05:26:16;6.00;;;2.05;;
29206;SDS011;16247;50.840;4.382;2022-10-16T05:28:46;4.15;;;2.20;;
29206;SDS011;16247;50.840;4.382;2022-10-16T05:31:12;3.17;;;1.88;;
29206;SDS011;16247;50.840;4.382;2022-10-16T05:33:42;5.07;;;1.90;;
29206;SDS011;16247;50.840;4.382;2022-10-16T05:38:43;5.88;;;1.95;;
29206;SDS011;16247;50.840;4.382;2022-10-16T05:41:10;3.30;;;1.63;;
29206;SDS011;16247;50.840;4.382;2022-10-16T05:43:38;4.20;;;1.90;;
29206;SDS011;16247;50.840;4.382;2022-10-16T05:46:04;3.28;;;1.60;;
29206;SDS011;16247;50.840;4.382;2022-10-16T06:05:18;4.78;;;1.88;;
29206;SDS011;16247;50.840;4.382;2022-10-16T06:07:44;5.68;;;2.03;;
29206;SDS011;16247;50.840;4.382;2022-10-16T06:10:09;4.65;;;2.05;;
29206;SDS011;16247;50.840;4.382;2022-10-16T06:12:36;4.60;;;2.38;;
29206;SDS011;16247;50.840;4.382;2022-10-16T06:15:02;10.13;;;1.90;;
29206;SDS011;16247;50.840;4.382;2022-10-16T06:17:28;9.25;;;2.83;;
29206;SDS011;16247;50.840;4.382;2022-10-16T06:19:54;5.75;;;1.98;;
29206;SDS011;16247;50.840;4.382;2022-10-16T06:22:19;2.80;;;1.58;;
29206;SDS011;16247;50.840;4.382;2022-10-16T06:24:46;5.65;;;1.90;;
29206;SDS011;16247;50.840;4.382;2022-10-16T06:27:12;5.07;;;1.67;;
29206;SDS011;16247;50.840;4.382;2022-10-16T06:29:38;3.50;;;1.90;;
29206;SDS011;16247;50.840;4.382;2022-10-16T06:32:03;2.75;;;1.58;;
29206;SDS011;16247;50.840;4.382;2022-10-16T06:34:29;4.93;;;1.50;;
29206;SDS011;16247;50.840;4.382;2022-10-16T06:36:55;4.25;;;1.92;;
29206;SDS011;16247;50.840;4.382;2022-10-16T06:39:20;4.97;;;2.83;;
29206;SDS011;16247;50.840;4.382;2022-10-16T06:41:46;7.15;;;1.77;;
29206;SDS011;16247;50.840;4.382;2022-10-16T06:44:12;3.88;;;2.05;;
29206;SDS011;16247;50.840;4.382;2022-10-16T06:46:37;5.70;;;2.38;;
29206;SDS011;16247;50.840;4.382;2022-10-16T06:49:03;5.05;;;2.60;;
29206;SDS011;16247;50.840;4.382;2022-10-16T06:51:29;7.85;;;1.98;;
29206;SDS011;16247;50.840;4.382;2022-10-16T06:53:56;4.53;;;2.23;;
29206;SDS011;16247;50.840;4.382;2022-10-16T06:56:23;6.78;;;1.95;;
29206;SDS011;16247;50.840;4.382;2022-10-16T06:58:51;9.27;;;3.97;;
29206;SDS011;16247;50.840;4.382;2022-10-16T07:01:18;7.90;;;2.60;;
29206;SDS011;16247;50.840;4.382;2022-10-16T07:03:45;10.50;;;4.95;;
29206;SDS011;16247;50.840;4.382;2022-10-16T07:06:12;6.20;;;2.08;;
29206;SDS011;16247;50.840;4.382;2022-10-16T07:08:40;2.72;;;1.50;;
29206;SDS011;16247;50.840;4.382;2022-10-16T07:11:09;5.27;;;2.80;;
29206;SDS011;16247;50.840;4.382;2022-10-16T07:13:37;6.72;;;2.85;;
29206;SDS011;16247;50.840;4.382;2022-10-16T07:16:07;8.97;;;1.90;;
29206;SDS011;16247;50.840;4.382;2022-10-16T07:18:45;2.83;;;1.95;;
29206;SDS011;16247;50.840;4.382;2022-10-16T07:21:14;7.30;;;3.17;;
29206;SDS011;16247;50.840;4.382;2022-10-16T07:23:42;6.53;;;2.60;;
29206;SDS011;16247;50.840;4.382;2022-10-16T07:26:08;4.05;;;1.77;;
29206;SDS011;16247;50.840;4.382;2022-10-16T08:10:42;3.92;;;1.85;;
29206;SDS011;16247;50.840;4.382;2022-10-16T08:13:12;5.30;;;2.10;;
29206;SDS011;16247;50.840;4.382;2022-10-16T08:15:44;7.00;;;1.88;;
29206;SDS011;16247;50.840;4.382;2022-10-16T08:18:14;6.35;;;1.90;;
29206;SDS011;16247;50.840;4.382;2022-10-16T08:20:46;6.32;;;1.48;;
29206;SDS011;16247;50.840;4.382;2022-10-16T08:23:12;4.78;;;1.50;;
29206;SDS011;16247;50.840;4.382;2022-10-16T08:25:44;2.90;;;1.58;;
29206;SDS011;16247;50.840;4.382;2022-10-16T08:28:11;3.10;;;1.50;;
29206;SDS011;16247;50.840;4.382;2022-10-16T08:30:37;7.97;;;1.70;;
29206;SDS011;16247;50.840;4.382;2022-10-16T08:33:04;3.95;;;1.55;;
29206;SDS011;16247;50.840;4.382;2022-10-16T08:35:32;4.25;;;1.40;;
29206;SDS011;16247;50.840;4.382;2022-10-16T08:37:58;4.00;;;1.52;;
29206;SDS011;16247;50.840;4.382;2022-10-16T08:40:28;4.05;;;1.45;;
29206;SDS011;16247;50.840;4.382;2022-10-16T08:43:02;4.72;;;1.40;;
29206;SDS011;16247;50.840;4.382;2022-10-16T08:48:47;10.70;;;2.10;;
29206;SDS011;16247;50.840;4.382;2022-10-16T08:51:25;4.05;;;1.33;;
29206;SDS011;16247;50.840;4.382;2022-10-16T08:53:55;4.70;;;1.88;;
29206;SDS011;16247;50.840;4.382;2022-10-16T08:56:50;3.95;;;1.45;;
29206;SDS011;16247;50.840;4.382;2022-10-16T09:05:17;3.67;;;1.30;;
29206;SDS011;16247;50.840;4.382;2022-10-16T09:08:30;5.13;;;1.60;;
29206;SDS011;16247;50.840;4.382;2022-10-16T09:16:28;5.68;;;1.33;;
29206;SDS011;16247;50.840;4.382;2022-10-16T09:19:24;7.00;;;1.67;;
29206;SDS011;16247;50.840;4.382;2022-10-16T09:22:10;6.20;;;1.20;;
29206;SDS011;16247;50.840;4.382;2022-10-16T09:24:54;3.00;;;1.15;;
29206;SDS011;16247;50.840;4.382;2022-10-16T09:27:25;3.83;;;1.30;;
29206;SDS011;16247;50.840;4.382;2022-10-16T09:29:54;6.72;;;1.52;;
29206;SDS011;16247;50.840;4.382;2022-10-16T09:32:27;6.03;;;1.15;;
29206;SDS011;16247;50.840;4.382;2022-10-16T09:34:54;5.07;;;1.58;;
29206;SDS011;16247;50.840;4.382;2022-10-16T09:37:26;2.90;;;1.15;;
29206;SDS011;16247;50.840;4.382;2022-10-16T09:40:53;9.63;;;1.60;;
29206;SDS011;16247;50.840;4.382;2022-10-16T09:48:53;7.40;;;1.40;;
29206;SDS011;16247;50.840;4.382;2022-10-16T09:52:11;8.57;;;1.30;;
29206;SDS011;16247;50.840;4.382;2022-10-16T09:55:18;4.15;;;1.23;;
29206;SDS011;16247;50.840;4.382;2022-10-16T09:57:54;10.32;;;4.70;;
29206;SDS011;16247;50.840;4.382;2022-10-16T10:01:05;6.70;;;1.40;;
29206;SDS011;16247;50.840;4.382;2022-10-16T10:03:37;4.68;;;1.02;;
29206;SDS011;16247;50.840;4.382;2022-10-16T10:06:31;4.80;;;1.92;;
29206;SDS011;16247;50.840;4.382;2022-10-16T10:12:32;2.75;;;1.05;;
29206;SDS011;16247;50.840;4.382;2022-10-16T10:15:33;5.47;;;1.60;;
29206;SDS011;16247;50.840;4.382;2022-10-16T10:18:21;4.13;;;0.90;;
29206;SDS011;16247;50.840;4.382;2022-10-16T10:21:17;4.82;;;1.20;;
29206;SDS011;16247;50.840;4.382;2022-10-16T10:24:09;3.33;;;1.10;;
29206;SDS011;16247;50.840;4.382;2022-10-16T10:33:24;4.93;;;1.30;;
29206;SDS011;16247;50.840;4.382;2022-10-16T10:36:40;3.38;;;1.42;;
29206;SDS011;16247;50.840;4.382;2022-10-16T11:05:49;4.20;;;1.60;;
29206;SDS011;16247;50.840;4.382;2022-10-16T11:21:46;4.65;;;1.33;;
29206;SDS011;16247;50.840;4.382;2022-10-16T11:30:41;3.40;;;1.15;;
29206;SDS011;16247;50.840;4.382;2022-10-16T11:34:12;6.13;;;1.30;;
29206;SDS011;16247;50.840;4.382;2022-10-16T11:40:54;3.78;;;1.20;;
29206;SDS011;16247;50.840;4.382;2022-10-16T11:57:35;2.83;;;0.95;;
29206;SDS011;16247;50.840;4.382;2022-10-16T12:10:43;3.40;;;1.20;;
29206;SDS011;16247;50.840;4.382;2022-10-16T12:14:39;5.15;;;1.80;;
29206;SDS011;16247;50.840;4.382;2022-10-16T12:17:56;6.75;;;4.55;;
29206;SDS011;16247;50.840;4.382;2022-10-16T12:21:35;2.90;;;1.40;;
29206;SDS011;16247;50.840;4.382;2022-10-16T12:24:43;5.75;;;2.00;;
29206;SDS011;16247;50.840;4.382;2022-10-16T12:34:01;5.45;;;1.15;;
29206;SDS011;16247;50.840;4.382;2022-10-16T12:36:42;4.85;;;1.23;;
29206;SDS011;16247;50.840;4.382;2022-10-16T12:39:33;3.63;;;1.20;;
29206;SDS011;16247;50.840;4.382;2022-10-16T12:43:27;2.80;;;0.77;;
29206;SDS011;16247;50.840;4.382;2022-10-16T12:47:02;2.40;;;0.88;;
29206;SDS011;16247;50.840;4.382;2022-10-16T13:16:18;4.95;;;2.00;;
29206;SDS011;16247;50.840;4.382;2022-10-16T13:29:05;5.32;;;1.27;;
29206;SDS011;16247;50.840;4.382;2022-10-16T13:46:29;4.05;;;1.67;;
29206;SDS011;16247;50.840;4.382;2022-10-16T13:49:59;5.90;;;1.70;;
29206;SDS011;16247;50.840;4.382;2022-10-16T13:53:03;5.03;;;1.38;;
29206;SDS011;16247;50.840;4.382;2022-10-16T13:58:36;3.50;;;1.60;;
29206;SDS011;16247;50.840;4.382;2022-10-16T14:04:58;3.40;;;1.13;;
29206;SDS011;16247;50.840;4.382;2022-10-16T14:08:10;5.25;;;1.02;;
29206;SDS011;16247;50.840;4.382;2022-10-16T14:11:12;5.15;;;1.20;;
29206;SDS011;16247;50.840;4.382;2022-10-16T14:17:50;4.57;;;1.30;;
29206;SDS011;16247;50.840;4.382;2022-10-16T14:24:53;3.13;;;1.45;;
29206;SDS011;16247;50.840;4.382;2022-10-16T14:38:43;5.05;;;1.48;;
29206;SDS011;16247;50.840;4.382;2022-10-16T14:52:59;4.28;;;1.52;;
29206;SDS011;16247;50.840;4.382;2022-10-16T15:00:00;5.10;;;1.20;;
29206;SDS011;16247;50.840;4.382;2022-10-16T15:02:49;3.65;;;1.30;;
29206;SDS011;16247;50.840;4.382;2022-10-16T15:05:27;8.07;;;1.80;;
29206;SDS011;16247;50.840;4.382;2022-10-16T15:08:19;7.03;;;1.90;;
29206;SDS011;16247;50.840;4.382;2022-10-16T15:11:17;5.28;;;1.35;;
29206;SDS011;16247;50.840;4.382;2022-10-16T15:14:38;3.95;;;1.58;;
29206;SDS011;16247;50.840;4.382;2022-10-16T15:18:12;2.97;;;1.48;;
29206;SDS011;16247;50.840;4.382;2022-10-16T15:21:44;10.27;;;2.08;;
29206;SDS011;16247;50.840;4.382;2022-10-16T15:55:36;9.27;;;1.98;;
29206;SDS011;16247;50.840;4.382;2022-10-16T15:58:33;7.40;;;2.22;;
29206;SDS011;16247;50.840;4.382;2022-10-16T16:01:27;4.05;;;1.60;;
29206;SDS011;16247;50.840;4.382;2022-10-16T16:04:34;7.03;;;2.10;;
29206;SDS011;16247;50.840;4.382;2022-10-16T16:13:57;4.57;;;1.65;;
29206;SDS011;16247;50.840;4.382;2022-10-16T16:22:57;5.18;;;2.33;;
29206;SDS011;16247;50.840;4.382;2022-10-16T16:26:01;11.15;;;4.50;;
29206;SDS011;16247;50.840;4.382;2022-10-16T16:33:53;5.85;;;2.20;;
29206;SDS011;16247;50.840;4.382;2022-10-16T16:36:19;4.60;;;1.75;;
29206;SDS011;16247;50.840;4.382;2022-10-16T16:38:48;4.63;;;1.75;;
29206;SDS011;16247;50.840;4.382;2022-10-16T16:41:18;7.63;;;3.55;;
29206;SDS011;16247;50.840;4.382;2022-10-16T16:43:45;7.20;;;2.85;;
29206;SDS011;16247;50.840;4.382;2022-10-16T16:46:15;5.65;;;2.53;;
29206;SDS011;16247;50.840;4.382;2022-10-16T16:48:43;7.40;;;2.70;;
29206;SDS011;16247;50.840;4.382;2022-10-16T16:51:14;4.68;;;2.53;;
29206;SDS011;16247;50.840;4.382;2022-10-16T16:53:41;3.33;;;1.95;;
29206;SDS011;16247;50.840;4.382;2022-10-16T16:56:15;8.30;;;2.08;;
29206;SDS011;16247;50.840;4.382;2022-10-16T16:58:47;4.50;;;2.13;;
29206;SDS011;16247;50.840;4.382;2022-10-16T17:01:25;5.00;;;1.90;;
29206;SDS011;16247;50.840;4.382;2022-10-16T17:04:21;8.15;;;3.70;;
29206;SDS011;16247;50.840;4.382;2022-10-16T17:06:48;10.85;;;4.38;;
29206;SDS011;16247;50.840;4.382;2022-10-16T17:09:32;9.65;;;4.90;;
29206;SDS011;16247;50.840;4.382;2022-10-16T17:12:03;12.60;;;4.82;;
29206;SDS011;16247;50.840;4.382;2022-10-16T17:14:29;14.63;;;3.50;;
29206;SDS011;16247;50.840;4.382;2022-10-16T17:16:55;11.73;;;4.28;;
29206;SDS011;16247;50.840;4.382;2022-10-16T17:19:22;10.10;;;3.80;;
29206;SDS011;16247;50.840;4.382;2022-10-16T17:21:48;6.70;;;3.65;;
29206;SDS011;16247;50.840;4.382;2022-10-16T17:24:19;8.38;;;3.90;;
29206;SDS011;16247;50.840;4.382;2022-10-16T17:26:46;12.25;;;5.47;;
29206;SDS011;16247;50.840;4.382;2022-10-16T17:29:15;11.15;;;5.30;;
29206;SDS011;16247;50.840;4.382;2022-10-16T17:31:45;11.25;;;5.72;;
29206;SDS011;16247;50.840;4.382;2022-10-16T17:34:17;14.65;;;5.90;;
29206;SDS011;16247;50.840;4.382;2022-10-16T17:36:46;21.23;;;6.30;;
29206;SDS011;16247;50.840;4.382;2022-10-16T17:39:15;12.75;;;5.78;;
29206;SDS011;16247;50.840;4.382;2022-10-16T17:41:42;9.10;;;4.85;;
29206;SDS011;16247;50.840;4.382;2022-10-16T17:44:09;8.20;;;5.25;;
29206;SDS011;16247;50.840;4.382;2022-10-16T17:49:08;13.77;;;6.18;;
29206;SDS011;16247;50.840;4.382;2022-10-16T17:51:35;13.90;;;6.57;;
29206;SDS011;16247;50.840;4.382;2022-10-16T17:54:01;13.93;;;6.32;;
29206;SDS011;16247;50.840;4.382;2022-10-16T17:56:28;14.40;;;6.93;;
29206;SDS011;16247;50.840;4.382;2022-10-16T17:59:01;11.02;;;6.28;;
29206;SDS011;16247;50.840;4.382;2022-10-16T18:01:32;11.65;;;6.53;;
29206;SDS011;16247;50.840;4.382;2022-10-16T18:04:18;12.38;;;6.28;;
29206;SDS011;16247;50.840;4.382;2022-10-16T18:06:47;10.30;;;5.82;;
29206;SDS011;16247;50.840;4.382;2022-10-16T18:09:16;8.00;;;6.10;;
29206;SDS011;16247;50.840;4.382;2022-10-16T18:12:03;13.15;;;7.05;;
29206;SDS011;16247;50.840;4.382;2022-10-16T18:14:37;9.00;;;6.22;;
29206;SDS011;16247;50.840;4.382;2022-10-16T18:17:08;9.57;;;7.10;;
29206;SDS011;16247;50.840;4.382;2022-10-16T18:19:36;10.50;;;7.28;;
29206;SDS011;16247;50.840;4.382;2022-10-16T18:22:04;8.07;;;6.88;;
29206;SDS011;16247;50.840;4.382;2022-10-16T18:24:36;11.95;;;7.10;;
29206;SDS011;16247;50.840;4.382;2022-10-16T20:01:58;17.08;;;8.57;;
29206;SDS011;16247;50.840;4.382;2022-10-16T20:04:23;11.05;;;8.63;;
29206;SDS011;16247;50.840;4.382;2022-10-16T20:07:35;10.48;;;8.35;;
29206;SDS011;16247;50.840;4.382;2022-10-16T20:10:24;8.95;;;6.18;;
29206;SDS011;16247;50.840;4.382;2022-10-16T20:17:09;11.43;;;7.40;;
29206;SDS011;16247;50.840;4.382;2022-10-16T20:20:13;11.57;;;7.28;;
29206;SDS011;16247;50.840;4.382;2022-10-16T20:22:54;10.15;;;8.57;;
29206;SDS011;16247;50.840;4.382;2022-10-16T20:26:05;11.35;;;7.30;;
29206;SDS011;16247;50.840;4.382;2022-10-16T20:29:20;14.02;;;9.40;;
29206;SDS011;16247;50.840;4.382;2022-10-16T20:36:00;12.57;;;8.55;;
29206;SDS011;16247;50.840;4.382;2022-10-16T20:38:39;14.55;;;9.85;;
29206;SDS011;16247;50.840;4.382;2022-10-16T20:41:33;16.33;;;9.90;;
29206;SDS011;16247;50.840;4.382;2022-10-16T20:47:27;13.55;;;10.43;;
29206;SDS011;16247;50.840;4.382;2022-10-16T20:50:12;12.98;;;9.40;;
29206;SDS011;16247;50.840;4.382;2022-10-16T20:59:03;11.10;;;9.50;;
29206;SDS011;16247;50.840;4.382;2022-10-16T21:01:31;13.02;;;9.73;;
29206;SDS011;16247;50.840;4.382;2022-10-16T21:04:10;20.08;;;9.95;;
29206;SDS011;16247;50.840;4.382;2022-10-16T21:07:05;13.07;;;9.70;;
29206;SDS011;16247;50.840;4.382;2022-10-16T21:09:49;13.02;;;10.63;;
29206;SDS011;16247;50.840;4.382;2022-10-16T21:13:03;14.43;;;10.15;;
29206;SDS011;16247;50.840;4.382;2022-10-16T21:16:24;14.00;;;10.50;;
29206;SDS011;16247;50.840;4.382;2022-10-16T21:19:22;12.70;;;10.02;;
29206;SDS011;16247;50.840;4.382;2022-10-16T21:29:04;12.23;;;9.18;;
29206;SDS011;16247;50.840;4.382;2022-10-16T21:31:58;11.25;;;7.82;;
29206;SDS011;16247;50.840;4.382;2022-10-16T21:37:58;8.07;;;6.57;;
29206;SDS011;16247;50.840;4.382;2022-10-16T21:41:10;10.23;;;7.00;;
29206;SDS011;16247;50.840;4.382;2022-10-16T21:44:08;11.52;;;6.90;;
29206;SDS011;16247;50.840;4.382;2022-10-16T21:47:17;11.57;;;6.55;;
29206;SDS011;16247;50.840;4.382;2022-10-16T21:50:04;11.15;;;6.22;;
29206;SDS011;16247;50.840;4.382;2022-10-16T21:53:26;8.48;;;6.85;;
29206;SDS011;16247;50.840;4.382;2022-10-16T21:59:42;7.70;;;5.90;;
29206;SDS011;16247;50.840;4.382;2022-10-16T22:02:58;8.18;;;5.72;;
29206;SDS011;16247;50.840;4.382;2022-10-16T22:08:09;8.88;;;6.32;;
29206;SDS011;16247;50.840;4.382;2022-10-16T22:11:42;8.10;;;6.38;;
29206;SDS011;16247;50.840;4.382;2022-10-16T22:18:01;9.43;;;6.65;;
29206;SDS011;16247;50.840;4.382;2022-10-16T22:20:57;12.32;;;6.38;;
29206;SDS011;16247;50.840;4.382;2022-10-16T22:24:23;9.57;;;6.63;;
29206;SDS011;16247;50.840;4.382;2022-10-16T22:30:24;8.80;;;6.70;;
29206;SDS011;16247;50.840;4.382;2022-10-16T22:33:22;8.98;;;6.90;;
29206;SDS011;16247;50.840;4.382;2022-10-16T23:39:26;13.35;;;7.97;;
29206;SDS011;16247;50.840;4.382;2022-10-16T23:49:15;12.07;;;7.95;;
29206;SDS011;16247;50.840;4.382;2022-10-16T23:51:51;11.00;;;8.48;;
29206;SDS011;16247;50.840;4.382;2022-10-16T23:55:00;11.88;;;7.50;;
29206;SDS011;16247;50.840;4.382;2022-10-16T23:57:25;12.27;;;7.88;;
